createdAt,value
2022-10-29T00:02:01.003Z,23.57
2022-10-29T00:04:28.958Z,23.56
2022-10-29T00:06:56.905Z,23.56
2022-10-29T00:09:24.826Z,23.54
2022-10-29T00:11:54.210Z,23.55
2022-10-29T00:14:22.128Z,23.54
2022-10-29T00:16:50.108Z,23.53
2022-10-29T00:19:18.082Z,23.52
2022-10-29T00:21:46.000Z,23.52
2022-10-29T00:24:14.107Z,23.49
2022-10-29T00:26:42.036Z,23.48
2022-10-29T00:29:11.341Z,23.47
2022-10-29T00:31:39.378Z,23.46
2022-10-29T00:34:07.420Z,23.46
2022-10-29T00:36:35.373Z,23.46
2022-10-29T00:39:03.369Z,23.41
2022-10-29T00:41:31.456Z,23.43
2022-10-29T00:44:30.516Z,23.42
2022-10-29T00:47:02.660Z,23.42
2022-10-29T00:49:30.968Z,23.42
2022-10-29T00:51:59.023Z,23.41
2022-10-29T00:54:28.491Z,23.40
2022-10-29T00:56:59.679Z,23.40
2022-10-29T00:59:27.603Z,23.38
2022-10-29T01:01:56.990Z,23.38
2022-10-29T01:04:25.037Z,23.36
2022-10-29T01:06:53.207Z,23.36
2022-10-29T01:09:21.115Z,23.36
2022-10-29T01:11:53.971Z,23.37
2022-10-29T01:14:26.449Z,23.39
2022-10-29T01:16:56.820Z,23.37
2022-10-29T01:19:33.561Z,23.39
2022-10-29T01:22:01.551Z,23.38
2022-10-29T01:24:54.454Z,23.38
2022-10-29T01:28:06.544Z,23.37
2022-10-29T01:30:49.400Z,23.37
2022-10-29T01:33:18.537Z,23.37
2022-10-29T01:35:50.819Z,23.37
2022-10-29T01:38:26.017Z,23.36
2022-10-29T01:40:57.676Z,23.36
2022-10-29T01:43:26.913Z,23.35
2022-10-29T01:45:57.950Z,23.36
2022-10-29T01:48:32.152Z,23.35
2022-10-29T01:51:02.371Z,23.34
2022-10-29T01:53:30.365Z,23.35
2022-10-29T01:55:58.310Z,23.34
2022-10-29T01:58:26.226Z,23.33
2022-10-29T02:00:59.092Z,23.33
2022-10-29T02:03:32.420Z,23.32
2022-10-29T02:06:02.947Z,23.31
2022-10-29T02:08:34.090Z,23.32
2022-10-29T02:11:03.684Z,23.30
2022-10-29T02:13:33.825Z,23.30
2022-10-29T02:16:03.984Z,23.29
2022-10-29T02:18:31.964Z,23.28
2022-10-29T02:21:00.238Z,23.28
2022-10-29T02:23:29.082Z,23.27
2022-10-29T02:25:57.067Z,23.26
2022-10-29T02:28:25.159Z,23.25
2022-10-29T02:30:53.040Z,23.25
2022-10-29T02:33:22.436Z,23.25
2022-10-29T02:35:50.347Z,23.25
2022-10-29T02:38:18.278Z,23.26
2022-10-29T02:40:46.194Z,23.24
2022-10-29T02:43:14.195Z,23.24
2022-10-29T02:45:42.184Z,23.26
2022-10-29T02:48:10.095Z,23.24
2022-10-29T02:50:39.426Z,23.23
2022-10-29T02:53:07.427Z,23.23
2022-10-29T02:55:35.324Z,23.24
2022-10-29T02:58:03.265Z,23.24
2022-10-29T03:00:31.226Z,23.23
2022-10-29T03:02:59.524Z,23.23
2022-10-29T03:05:28.025Z,23.22
2022-10-29T03:07:57.421Z,23.21
2022-10-29T03:10:25.386Z,23.20
2022-10-29T03:12:53.448Z,23.20
2022-10-29T03:15:21.584Z,23.19
2022-10-29T03:17:49.485Z,23.19
2022-10-29T03:20:17.641Z,23.18
2022-10-29T03:22:45.623Z,23.18
2022-10-29T03:25:15.046Z,23.17
2022-10-29T03:27:43.141Z,23.15
2022-10-29T03:30:12.443Z,23.14
2022-10-29T03:32:40.995Z,23.15
2022-10-29T03:35:09.630Z,23.15
2022-10-29T03:37:37.654Z,23.14
2022-10-29T03:40:06.213Z,23.13
2022-10-29T03:42:35.616Z,23.14
2022-10-29T03:45:03.566Z,23.13
2022-10-29T03:47:31.542Z,23.13
2022-10-29T03:49:59.483Z,23.13
2022-10-29T03:52:27.396Z,23.12
2022-10-29T03:54:55.322Z,23.13
2022-10-29T03:57:23.271Z,23.12
2022-10-29T03:59:52.886Z,23.12
2022-10-29T04:02:20.998Z,23.12
2022-10-29T04:04:49.120Z,23.11
2022-10-29T04:07:17.121Z,23.11
2022-10-29T04:09:45.158Z,23.10
2022-10-29T04:12:15.172Z,23.09
2022-10-29T04:14:45.680Z,23.09
2022-10-29T04:17:15.230Z,23.08
2022-10-29T04:19:43.177Z,23.08
2022-10-29T04:28:41.961Z,23.04
2022-10-29T04:30:35.111Z,23.03
2022-10-29T04:33:04.640Z,23.02
2022-10-29T04:35:32.657Z,23.03
2022-10-29T04:38:00.671Z,23.02
2022-10-29T04:40:28.867Z,23.00
2022-10-29T04:42:57.083Z,23.01
2022-10-29T04:45:25.210Z,23.00
2022-10-29T04:48:00.199Z,23.00
2022-10-29T04:50:29.512Z,23.00
2022-10-29T04:52:59.635Z,23.00
2022-10-29T04:55:27.556Z,23.00
2022-10-29T04:57:55.993Z,22.99
2022-10-29T05:00:24.584Z,22.99
2022-10-29T05:02:53.225Z,22.99
2022-10-29T05:05:22.344Z,22.99
2022-10-29T05:07:57.045Z,22.98
2022-10-29T05:10:25.464Z,22.98
2022-10-29T05:12:58.311Z,22.97
2022-10-29T05:15:26.504Z,22.97
2022-10-29T05:17:54.619Z,22.96
2022-10-29T05:20:22.850Z,22.95
2022-10-29T05:22:52.175Z,22.95
2022-10-29T05:25:20.081Z,22.95
2022-10-29T05:27:48.019Z,22.94
2022-10-29T05:30:16.097Z,22.93
2022-10-29T05:32:44.601Z,22.94
2022-10-29T05:35:12.580Z,22.93
2022-10-29T05:37:40.537Z,22.93
2022-10-29T05:40:12.055Z,22.91
2022-10-29T05:42:43.651Z,22.91
2022-10-29T05:45:15.148Z,22.91
2022-10-29T05:47:43.111Z,22.92
2022-10-29T05:50:11.430Z,22.90
2022-10-29T05:52:39.377Z,22.90
2022-10-29T05:55:10.214Z,22.90
2022-10-29T05:57:38.234Z,22.91
2022-10-29T06:00:08.580Z,22.89
2022-10-29T06:02:36.617Z,22.90
2022-10-29T06:05:05.259Z,22.91
2022-10-29T06:07:33.228Z,22.90
2022-10-29T06:10:01.579Z,22.88
2022-10-29T06:12:34.824Z,22.89
2022-10-29T06:15:03.178Z,22.88
2022-10-29T06:17:31.139Z,22.88
2022-10-29T06:19:59.240Z,22.88
2022-10-29T06:22:27.178Z,22.88
2022-10-29T06:24:55.169Z,22.87
2022-10-29T06:27:23.063Z,22.88
2022-10-29T06:29:52.434Z,22.87
2022-10-29T06:32:20.361Z,22.87
2022-10-29T06:34:48.406Z,22.87
2022-10-29T06:37:16.435Z,22.88
2022-10-29T06:39:46.321Z,22.86
2022-10-29T06:42:14.335Z,22.87
2022-10-29T06:44:42.648Z,22.87
2022-10-29T06:47:12.032Z,22.88
2022-10-29T06:49:39.930Z,22.88
2022-10-29T06:52:07.900Z,22.87
2022-10-29T06:54:35.838Z,22.89
2022-10-29T06:57:03.808Z,22.88
2022-10-29T06:59:31.841Z,22.88
2022-10-29T07:02:00.191Z,22.88
2022-10-29T07:04:29.564Z,22.90
2022-10-29T07:06:57.555Z,22.90
2022-10-29T07:09:25.554Z,22.89
2022-10-29T07:11:53.589Z,22.92
2022-10-29T07:14:21.554Z,22.93
2022-10-29T07:16:49.547Z,22.93
2022-10-29T07:19:17.524Z,22.94
2022-10-29T07:21:47.053Z,22.94
2022-10-29T07:24:17.734Z,22.94
2022-10-29T07:26:46.051Z,22.95
2022-10-29T07:29:14.032Z,22.94
2022-10-29T07:31:42.141Z,22.93
2022-10-29T07:34:10.106Z,22.95
2022-10-29T07:36:38.882Z,22.94
2022-10-29T07:39:08.888Z,22.94
2022-10-29T07:41:37.371Z,22.95
2022-10-29T07:44:05.314Z,22.97
2022-10-29T07:46:33.690Z,22.99
2022-10-29T07:49:02.075Z,23.01
2022-10-29T07:51:30.471Z,23.03
2022-10-29T07:53:58.938Z,23.08
2022-10-29T07:56:29.469Z,23.11
2022-10-29T07:58:57.420Z,23.14
2022-10-29T08:01:26.954Z,23.18
2022-10-29T08:03:54.991Z,23.22
2022-10-29T08:06:23.694Z,23.23
2022-10-29T08:08:51.722Z,23.26
2022-10-29T08:11:20.090Z,23.29
2022-10-29T08:13:50.981Z,23.31
2022-10-29T08:16:19.454Z,23.33
2022-10-29T08:18:47.353Z,23.36
2022-10-29T08:21:16.009Z,23.39
2022-10-29T08:23:43.957Z,23.40
2022-10-29T08:26:12.455Z,23.43
2022-10-29T08:28:40.390Z,23.45
2022-10-29T08:31:10.330Z,23.47
2022-10-29T08:33:38.291Z,23.49
2022-10-29T08:36:07.365Z,23.52
2022-10-29T08:38:35.311Z,23.53
2022-10-29T08:41:31.902Z,23.53
2022-10-29T08:44:07.464Z,23.56
2022-10-29T08:46:42.614Z,23.59
2022-10-29T08:49:13.328Z,23.61
2022-10-29T08:51:42.749Z,23.65
2022-10-29T08:57:03.588Z,23.70
2022-10-29T08:59:34.661Z,23.73
2022-10-29T09:02:04.864Z,23.75
2022-10-29T09:04:34.511Z,23.76
2022-10-29T09:07:11.221Z,23.79
2022-10-29T09:09:40.417Z,23.82
2022-10-29T09:12:27.849Z,23.84
2022-10-29T09:15:10.809Z,23.88
2022-10-29T09:17:44.059Z,23.91
2022-10-29T09:20:24.352Z,23.92
2022-10-29T09:22:56.942Z,23.96
2022-10-29T09:25:26.605Z,23.98
2022-10-29T09:28:02.306Z,24.00
2022-10-29T09:30:31.027Z,24.03
2022-10-29T09:33:01.629Z,24.04
2022-10-29T09:35:38.925Z,24.06
2022-10-29T09:38:16.725Z,24.08
2022-10-29T09:40:44.756Z,24.10
2022-10-29T09:43:19.817Z,24.12
2022-10-29T09:45:49.539Z,24.14
2022-10-29T09:48:22.298Z,24.17
2022-10-29T09:50:55.303Z,24.18
2022-10-29T09:53:23.527Z,24.21
2022-10-29T09:55:53.893Z,24.24
2022-10-29T09:58:22.948Z,24.26
2022-10-29T10:00:51.654Z,24.28
2022-10-29T10:03:23.520Z,24.30
2022-10-29T10:06:03.195Z,24.32
2022-10-29T10:08:32.290Z,24.35
2022-10-29T10:11:01.295Z,24.35
2022-10-29T10:13:31.060Z,24.38
2022-10-29T10:15:59.823Z,24.41
2022-10-29T10:18:39.609Z,24.43
2022-10-29T10:21:08.905Z,24.44
2022-10-29T10:23:44.790Z,24.46
2022-10-29T10:26:31.850Z,24.48
2022-10-29T10:29:15.384Z,24.51
2022-10-29T10:31:44.504Z,24.52
2022-10-29T10:34:21.144Z,24.55
2022-10-29T10:36:52.369Z,24.57
2022-10-29T10:39:27.996Z,24.59
2022-10-29T10:41:56.380Z,24.60
2022-10-29T10:44:24.508Z,24.61
2022-10-29T10:46:53.494Z,24.62
2022-10-29T10:49:28.796Z,24.64
2022-10-29T10:51:57.064Z,24.65
2022-10-29T10:54:28.935Z,24.67
2022-10-29T10:57:02.022Z,24.68
2022-10-29T10:59:38.704Z,24.70
2022-10-29T11:02:07.722Z,24.70
2022-10-29T11:04:38.582Z,24.73
2022-10-29T11:07:07.901Z,24.74
2022-10-29T11:09:36.970Z,24.76
2022-10-29T11:12:07.714Z,24.77
2022-10-29T11:14:37.631Z,24.76
2022-10-29T11:17:06.440Z,24.79
2022-10-29T11:19:37.198Z,24.81
2022-10-29T11:22:10.080Z,24.81
2022-10-29T11:24:43.798Z,24.82
2022-10-29T11:27:25.685Z,24.83
2022-10-29T11:29:57.806Z,24.83
2022-10-29T11:32:29.877Z,24.84
2022-10-29T11:35:04.330Z,24.85
2022-10-29T11:37:35.134Z,24.84
2022-10-29T11:40:04.583Z,24.84
2022-10-29T11:42:33.066Z,24.85
2022-10-29T11:45:01.090Z,24.86
2022-10-29T11:47:38.721Z,24.87
2022-10-29T11:50:13.315Z,24.86
2022-10-29T11:52:45.795Z,24.88
2022-10-29T11:55:23.614Z,24.88
2022-10-29T11:57:54.043Z,24.89
2022-10-29T12:00:23.816Z,24.90
2022-10-29T12:03:17.580Z,24.91
2022-10-29T12:05:50.037Z,24.91
2022-10-29T12:08:31.097Z,24.92
2022-10-29T12:11:01.774Z,24.93
2022-10-29T12:13:37.617Z,24.93
2022-10-29T12:16:12.453Z,24.92
2022-10-29T12:18:45.325Z,24.93
2022-10-29T12:21:19.400Z,24.94
2022-10-29T12:23:53.511Z,24.93
2022-10-29T12:26:23.141Z,24.93
2022-10-29T12:28:54.397Z,24.94
2022-10-29T12:31:25.700Z,24.94
2022-10-29T12:33:57.187Z,24.94
2022-10-29T12:36:30.834Z,24.95
2022-10-29T12:38:59.220Z,24.95
2022-10-29T12:41:28.007Z,24.94
2022-10-29T12:44:00.320Z,24.95
2022-10-29T12:46:32.388Z,24.95
2022-10-29T12:49:05.605Z,24.95
2022-10-29T12:51:38.604Z,24.96
2022-10-29T12:54:32.633Z,24.95
2022-10-29T12:57:07.454Z,24.96
2022-10-29T12:59:36.975Z,24.97
2022-10-29T13:02:45.079Z,24.97
2022-10-29T13:05:40.416Z,24.99
2022-10-29T13:08:27.661Z,24.99
2022-10-29T13:10:56.358Z,25.01
2022-10-29T13:13:54.989Z,25.03
2022-10-29T13:16:26.489Z,25.02
2022-10-29T13:19:19.726Z,25.04
2022-10-29T13:22:04.868Z,25.05
2022-10-29T13:24:34.454Z,25.05
2022-10-29T13:27:09.673Z,25.07
2022-10-29T13:29:45.506Z,25.06
2022-10-29T13:32:34.591Z,25.07
2022-10-29T13:35:03.471Z,25.07
2022-10-29T13:37:52.000Z,25.08
2022-10-29T13:40:53.308Z,25.09
2022-10-29T13:43:23.157Z,25.08
2022-10-29T13:45:53.718Z,25.08
2022-10-29T13:48:26.306Z,25.07
2022-10-29T13:50:54.536Z,25.08
2022-10-29T13:53:24.329Z,25.09
2022-10-29T13:55:52.286Z,25.10
2022-10-29T13:58:25.221Z,25.10
2022-10-29T14:00:55.973Z,25.10
2022-10-29T14:03:26.628Z,25.10
2022-10-29T14:05:57.338Z,25.09
2022-10-29T14:08:27.279Z,25.09
2022-10-29T14:10:58.182Z,25.08
2022-10-29T14:13:31.197Z,25.08
2022-10-29T14:16:10.172Z,25.06
2022-10-29T14:18:39.134Z,25.06
2022-10-29T14:21:08.211Z,25.04
2022-10-29T14:23:36.268Z,25.03
2022-10-29T14:26:04.280Z,25.03
2022-10-29T14:28:33.833Z,25.01
2022-10-29T14:31:04.142Z,25.01
2022-10-29T14:33:34.911Z,25.00
2022-10-29T14:36:07.171Z,24.98
2022-10-29T14:38:39.737Z,24.98
2022-10-29T14:41:07.689Z,24.98
2022-10-29T14:43:37.225Z,24.97
2022-10-29T14:46:14.057Z,24.96
2022-10-29T14:48:47.347Z,24.96
2022-10-29T14:51:20.003Z,24.95
2022-10-29T14:53:48.520Z,24.94
2022-10-29T14:56:19.564Z,24.92
2022-10-29T14:58:50.119Z,24.90
2022-10-29T15:01:20.544Z,24.88
2022-10-29T15:03:49.205Z,24.87
2022-10-29T15:06:18.360Z,24.85
2022-10-29T15:08:47.395Z,24.84
2022-10-29T15:11:36.154Z,24.81
2022-10-29T15:14:07.944Z,24.79
2022-10-29T15:16:38.385Z,24.77
2022-10-29T15:19:12.873Z,24.76
2022-10-29T15:21:41.605Z,24.73
2022-10-29T15:24:10.922Z,24.72
2022-10-29T15:26:45.677Z,24.71
2022-10-29T15:29:15.694Z,24.69
2022-10-29T15:31:44.787Z,24.67
2022-10-29T15:34:17.160Z,24.66
2022-10-29T15:36:49.086Z,24.63
2022-10-29T15:39:23.521Z,24.62
2022-10-29T15:41:51.750Z,24.62
2022-10-29T15:44:36.033Z,24.59
2022-10-29T15:47:11.415Z,24.59
2022-10-29T15:49:40.103Z,24.57
2022-10-29T15:52:10.269Z,24.57
2022-10-29T15:54:38.919Z,24.56
2022-10-29T15:57:07.065Z,24.55
2022-10-29T15:59:37.888Z,24.54
2022-10-29T16:02:11.423Z,24.53
2022-10-29T16:04:40.280Z,24.53
2022-10-29T16:07:08.441Z,24.52
2022-10-29T16:09:37.034Z,24.51
2022-10-29T16:12:05.326Z,24.49
2022-10-29T16:14:33.370Z,24.49
2022-10-29T16:17:03.517Z,24.47
2022-10-29T16:19:31.501Z,24.46
2022-10-29T16:22:00.908Z,24.44
2022-10-29T16:24:29.170Z,24.42
2022-10-29T16:26:57.967Z,24.41
2022-10-29T16:29:25.906Z,24.40
2022-10-29T16:31:54.506Z,24.39
2022-10-29T16:34:24.797Z,24.38
2022-10-29T16:36:53.586Z,24.36
2022-10-29T16:39:21.565Z,24.35
2022-10-29T16:41:50.562Z,24.34
2022-10-29T16:44:18.493Z,24.34
2022-10-29T16:46:48.051Z,24.31
2022-10-29T16:49:15.980Z,24.31
2022-10-29T16:51:45.999Z,24.30
2022-10-29T16:54:14.087Z,24.29
2022-10-29T16:56:42.798Z,24.29
2022-10-29T16:59:11.455Z,24.29
2022-10-29T17:01:41.610Z,24.28
2022-10-29T17:04:09.760Z,24.27
2022-10-29T17:06:38.434Z,24.28
2022-10-29T17:09:08.135Z,24.27
2022-10-29T17:11:36.987Z,24.26
2022-10-29T17:14:05.028Z,24.25
2022-10-29T17:19:06.609Z,24.23
2022-10-29T17:21:35.244Z,24.22
2022-10-29T17:24:06.879Z,24.21
2022-10-29T17:26:38.013Z,24.18
2022-10-29T17:29:05.943Z,24.19
2022-10-29T17:31:34.634Z,24.16
2022-10-29T17:34:02.603Z,24.15
2022-10-29T17:36:31.365Z,24.14
2022-10-29T17:38:59.288Z,24.14
2022-10-29T17:41:27.942Z,24.12
2022-10-29T17:43:57.255Z,24.12
2022-10-29T17:46:25.934Z,24.10
2022-10-29T17:48:55.800Z,24.11
2022-10-29T17:51:24.560Z,24.09
2022-10-29T17:53:52.482Z,24.09
2022-10-29T17:56:21.086Z,24.08
2022-10-29T17:58:49.038Z,24.09
2022-10-29T18:01:21.236Z,24.06
2022-10-29T18:03:49.209Z,24.05
2022-10-29T18:06:19.134Z,24.05
2022-10-29T18:08:47.286Z,24.05
2022-10-29T18:11:17.677Z,24.03
2022-10-29T18:13:46.168Z,24.03
2022-10-29T18:16:15.558Z,24.02
2022-10-29T18:19:00.638Z,24.01
2022-10-29T18:21:31.137Z,24.00
2022-10-29T18:23:59.209Z,24.00
2022-10-29T18:26:29.366Z,23.97
2022-10-29T18:28:57.729Z,23.99
2022-10-29T18:31:28.134Z,23.97
2022-10-29T18:33:57.563Z,23.95
2022-10-29T18:36:26.250Z,23.95
2022-10-29T18:38:54.658Z,23.93
2022-10-29T18:41:23.355Z,23.92
2022-10-29T18:43:51.504Z,23.91
2022-10-29T18:46:21.153Z,23.91
2022-10-29T18:48:49.367Z,23.90
2022-10-29T18:51:19.712Z,23.88
2022-10-29T18:53:48.460Z,23.88
2022-10-29T18:56:17.086Z,23.87
2022-10-29T18:58:45.738Z,23.86
2022-10-29T19:01:15.600Z,23.86
2022-10-29T19:03:45.090Z,23.84
2022-10-29T19:06:14.031Z,23.83
2022-10-29T19:08:45.204Z,23.83
2022-10-29T19:11:14.537Z,23.82
2022-10-29T19:13:43.206Z,23.80
2022-10-29T19:16:11.984Z,23.80
2022-10-29T19:18:42.567Z,23.79
2022-10-29T19:21:11.812Z,23.79
2022-10-29T19:23:41.127Z,23.78
2022-10-29T19:26:11.242Z,23.78
2022-10-29T19:28:40.196Z,23.76
2022-10-29T19:31:08.899Z,23.76
2022-10-29T19:33:37.719Z,23.74
2022-10-29T19:36:06.113Z,23.75
2022-10-29T19:38:34.892Z,23.73
2022-10-29T19:41:02.859Z,23.73
2022-10-29T19:43:33.257Z,23.72
2022-10-29T19:46:01.230Z,23.72
2022-10-29T19:48:29.870Z,23.70
2022-10-29T19:50:57.820Z,23.72
2022-10-29T19:53:27.176Z,23.71
2022-10-29T19:55:55.231Z,23.71
2022-10-29T19:58:25.162Z,23.70
2022-10-29T20:00:55.366Z,23.70
2022-10-29T20:03:26.171Z,23.69
2022-10-29T20:05:56.274Z,23.69
2022-10-29T20:08:24.932Z,23.68
2022-10-29T20:10:55.824Z,23.67
2022-10-29T20:13:24.617Z,23.67
2022-10-29T20:15:54.037Z,23.66
2022-10-29T20:18:22.770Z,23.66
2022-10-29T20:20:54.600Z,23.65
2022-10-29T20:23:23.361Z,23.64
2022-10-29T20:25:51.377Z,23.65
2022-10-29T20:28:20.195Z,23.63
2022-10-29T20:30:48.155Z,23.63
2022-10-29T20:33:18.250Z,23.62
2022-10-29T20:35:46.210Z,23.61
2022-10-29T20:38:14.916Z,23.60
2022-10-29T20:40:43.590Z,23.60
2022-10-29T20:43:12.293Z,23.59
2022-10-29T20:45:40.371Z,23.58
2022-10-29T20:48:09.029Z,23.57
2022-10-29T20:50:38.345Z,23.57
2022-10-29T20:53:07.195Z,23.56
2022-10-29T20:55:35.162Z,23.57
2022-10-29T20:58:03.930Z,23.56
2022-10-29T21:00:32.627Z,23.55
2022-10-29T21:03:01.266Z,23.56
2022-10-29T21:05:29.281Z,23.55
2022-10-29T21:08:00.448Z,23.55
2022-10-29T21:10:28.691Z,23.55
2022-10-29T21:12:56.896Z,23.55
2022-10-29T21:15:25.833Z,23.54
2022-10-29T21:17:53.762Z,23.54
2022-10-29T21:20:22.408Z,23.53
2022-10-29T21:22:50.403Z,23.54
2022-10-29T21:25:20.551Z,23.53
2022-10-29T21:27:48.511Z,23.51
2022-10-29T21:30:17.332Z,23.52
2022-10-29T21:32:45.319Z,23.51
2022-10-29T21:35:14.369Z,23.49
2022-10-29T21:37:42.360Z,23.49
2022-10-29T21:40:12.088Z,23.48
2022-10-29T21:42:41.383Z,23.47
2022-10-29T21:45:10.248Z,23.46
2022-10-29T21:47:38.190Z,23.46
2022-10-29T21:50:07.120Z,23.45
2022-10-29T21:52:35.075Z,23.45
2022-10-29T21:55:03.331Z,23.44
2022-10-29T21:57:31.249Z,23.43
2022-10-29T22:00:00.860Z,23.42
2022-10-29T22:02:29.109Z,23.41
2022-10-29T22:04:57.115Z,23.41
2022-10-29T22:07:25.065Z,23.41
2022-10-29T22:09:53.171Z,23.41
2022-10-29T22:12:21.078Z,23.41
2022-10-29T22:14:49.815Z,23.40
2022-10-29T22:17:19.235Z,23.40
2022-10-29T22:19:47.161Z,23.39
2022-10-29T22:22:15.157Z,23.40
2022-10-29T22:24:43.170Z,23.39
2022-10-29T22:27:11.089Z,23.39
2022-10-29T22:29:39.072Z,23.39
2022-10-29T22:32:07.828Z,23.37
2022-10-29T22:34:37.310Z,23.36
2022-10-29T22:37:05.253Z,23.36
2022-10-29T22:39:33.174Z,23.35
2022-10-29T22:42:01.093Z,23.34
2022-10-29T22:44:29.346Z,23.34
2022-10-29T22:46:57.330Z,23.33
2022-10-29T22:49:25.497Z,23.31
2022-10-29T22:51:58.715Z,23.31
2022-10-29T22:54:29.469Z,23.31
2022-10-29T22:56:57.358Z,23.30
2022-10-29T22:59:25.414Z,23.31
2022-10-29T23:01:53.571Z,23.30
2022-10-29T23:04:22.658Z,23.30
2022-10-29T23:06:50.550Z,23.29
2022-10-29T23:09:19.979Z,23.28
2022-10-29T23:11:47.890Z,23.29
2022-10-29T23:14:15.830Z,23.29
2022-10-29T23:16:43.772Z,23.27
2022-10-29T23:19:11.787Z,23.28
2022-10-29T23:21:40.175Z,23.28
2022-10-29T23:24:08.980Z,23.28
2022-10-29T23:26:38.328Z,23.28
2022-10-29T23:29:06.425Z,23.27
2022-10-29T23:31:34.358Z,23.29
2022-10-29T23:34:02.312Z,23.29
2022-10-29T23:36:30.306Z,23.28
2022-10-29T23:38:58.588Z,23.27
2022-10-29T23:41:26.715Z,23.26
2022-10-29T23:43:56.179Z,23.26
2022-10-29T23:46:24.141Z,23.26
2022-10-29T23:48:52.047Z,23.25
2022-10-29T23:51:20.149Z,23.24
2022-10-29T23:53:50.495Z,23.23
2022-10-29T23:56:21.287Z,23.23
2022-10-29T23:58:49.248Z,23.22
